sensor_id;sensor_type;location;lat;lon;timestamp;temperature;humidity
35559;DHT22;21661;50.794;-1.066;2023-04-03T00:01:00;6.90;99.90
35559;DHT22;21661;50.794;-1.066;2023-04-03T00:03:26;6.90;99.90
35559;DHT22;21661;50.794;-1.066;2023-04-03T00:05:52;6.90;99.90
35559;DHT22;21661;50.794;-1.066;2023-04-03T00:08:18;6.90;99.90
35559;DHT22;21661;50.794;-1.066;2023-04-03T00:10:43;6.80;99.90
35559;DHT22;21661;50.794;-1.066;2023-04-03T00:13:09;6.80;99.90
35559;DHT22;21661;50.794;-1.066;2023-04-03T00:15:36;6.90;99.90
35559;DHT22;21661;50.794;-1.066;2023-04-03T00:18:03;6.90;99.90
35559;DHT22;21661;50.794;-1.066;2023-04-03T00:20:28;6.80;99.90
35559;DHT22;21661;50.794;-1.066;2023-04-03T00:22:54;6.90;99.90
35559;DHT22;21661;50.794;-1.066;2023-04-03T00:25:20;6.70;99.90
35559;DHT22;21661;50.794;-1.066;2023-04-03T00:27:46;6.70;99.90
35559;DHT22;21661;50.794;-1.066;2023-04-03T00:30:15;6.70;99.90
35559;DHT22;21661;50.794;-1.066;2023-04-03T00:32:41;6.80;99.90
35559;DHT22;21661;50.794;-1.066;2023-04-03T00:35:07;6.70;99.90
35559;DHT22;21661;50.794;-1.066;2023-04-03T00:37:32;6.60;99.90
35559;DHT22;21661;50.794;-1.066;2023-04-03T00:39:58;6.60;99.90
35559;DHT22;21661;50.794;-1.066;2023-04-03T00:42:24;6.60;99.90
35559;DHT22;21661;50.794;-1.066;2023-04-03T00:47:22;6.50;99.90
35559;DHT22;21661;50.794;-1.066;2023-04-03T00:49:49;6.50;99.90
35559;DHT22;21661;50.794;-1.066;2023-04-03T00:52:19;6.50;99.90
35559;DHT22;21661;50.794;-1.066;2023-04-03T00:54:49;6.40;99.90
35559;DHT22;21661;50.794;-1.066;2023-04-03T00:57:16;6.40;99.90
35559;DHT22;21661;50.794;-1.066;2023-04-03T00:59:49;6.40;99.90
35559;DHT22;21661;50.794;-1.066;2023-04-03T01:02:16;6.40;99.90
35559;DHT22;21661;50.794;-1.066;2023-04-03T01:04:42;6.40;99.90
35559;DHT22;21661;50.794;-1.066;2023-04-03T01:09:41;6.40;99.90
35559;DHT22;21661;50.794;-1.066;2023-04-03T01:14:44;6.40;99.90
35559;DHT22;21661;50.794;-1.066;2023-04-03T01:25:26;6.10;99.90
35559;DHT22;21661;50.794;-1.066;2023-04-03T01:27:51;6.10;99.90
35559;DHT22;21661;50.794;-1.066;2023-04-03T01:30:19;6.10;99.90
35559;DHT22;21661;50.794;-1.066;2023-04-03T01:32:45;6.10;99.90
35559;DHT22;21661;50.794;-1.066;2023-04-03T01:35:11;6.10;99.90
35559;DHT22;21661;50.794;-1.066;2023-04-03T01:37:37;6.10;99.90
35559;DHT22;21661;50.794;-1.066;2023-04-03T01:40:04;6.10;99.90
35559;DHT22;21661;50.794;-1.066;2023-04-03T01:42:31;6.00;99.90
35559;DHT22;21661;50.794;-1.066;2023-04-03T01:44:56;5.90;99.90
35559;DHT22;21661;50.794;-1.066;2023-04-03T01:47:22;5.90;99.90
35559;DHT22;21661;50.794;-1.066;2023-04-03T01:49:48;5.90;99.90
35559;DHT22;21661;50.794;-1.066;2023-04-03T01:52:14;5.90;99.90
35559;DHT22;21661;50.794;-1.066;2023-04-03T01:54:39;5.90;99.90
35559;DHT22;21661;50.794;-1.066;2023-04-03T01:57:05;5.80;99.90
35559;DHT22;21661;50.794;-1.066;2023-04-03T01:59:31;5.90;99.90
35559;DHT22;21661;50.794;-1.066;2023-04-03T02:01:56;5.90;99.90
35559;DHT22;21661;50.794;-1.066;2023-04-03T02:04:22;5.80;99.90
35559;DHT22;21661;50.794;-1.066;2023-04-03T02:06:48;5.80;99.90
35559;DHT22;21661;50.794;-1.066;2023-04-03T02:09:14;5.70;99.90
35559;DHT22;21661;50.794;-1.066;2023-04-03T02:11:40;5.70;99.90
35559;DHT22;21661;50.794;-1.066;2023-04-03T02:14:06;5.70;99.90
35559;DHT22;21661;50.794;-1.066;2023-04-03T02:16:31;5.70;99.90
35559;DHT22;21661;50.794;-1.066;2023-04-03T02:18:57;5.80;99.90
35559;DHT22;21661;50.794;-1.066;2023-04-03T02:21:23;5.60;99.90
35559;DHT22;21661;50.794;-1.066;2023-04-03T02:23:48;5.60;99.90
35559;DHT22;21661;50.794;-1.066;2023-04-03T02:26:15;5.50;99.90
35559;DHT22;21661;50.794;-1.066;2023-04-03T02:28:42;5.50;99.90
35559;DHT22;21661;50.794;-1.066;2023-04-03T02:31:08;5.50;99.90
35559;DHT22;21661;50.794;-1.066;2023-04-03T02:33:34;5.50;99.90
35559;DHT22;21661;50.794;-1.066;2023-04-03T02:36:06;5.50;99.90
35559;DHT22;21661;50.794;-1.066;2023-04-03T02:38:32;5.60;99.90
35559;DHT22;21661;50.794;-1.066;2023-04-03T02:41:05;5.60;99.90
35559;DHT22;21661;50.794;-1.066;2023-04-03T02:43:31;5.60;99.90
35559;DHT22;21661;50.794;-1.066;2023-04-03T02:45:57;5.50;99.90
35559;DHT22;21661;50.794;-1.066;2023-04-03T02:48:23;5.70;99.90
35559;DHT22;21661;50.794;-1.066;2023-04-03T02:50:49;5.50;99.90
35559;DHT22;21661;50.794;-1.066;2023-04-03T02:53:14;5.50;99.90
35559;DHT22;21661;50.794;-1.066;2023-04-03T02:55:40;5.50;99.90
35559;DHT22;21661;50.794;-1.066;2023-04-03T02:58:06;5.50;99.90
35559;DHT22;21661;50.794;-1.066;2023-04-03T03:00:32;5.40;99.90
35559;DHT22;21661;50.794;-1.066;2023-04-03T03:02:57;5.40;99.90
35559;DHT22;21661;50.794;-1.066;2023-04-03T03:05:23;5.50;99.90
35559;DHT22;21661;50.794;-1.066;2023-04-03T03:07:49;5.40;99.90
35559;DHT22;21661;50.794;-1.066;2023-04-03T03:10:14;5.40;99.90
35559;DHT22;21661;50.794;-1.066;2023-04-03T03:12:40;5.40;99.90
35559;DHT22;21661;50.794;-1.066;2023-04-03T03:15:06;5.30;99.90
35559;DHT22;21661;50.794;-1.066;2023-04-03T03:17:32;5.40;99.90
35559;DHT22;21661;50.794;-1.066;2023-04-03T03:19:58;5.40;99.90
35559;DHT22;21661;50.794;-1.066;2023-04-03T03:22:23;5.40;99.90
35559;DHT22;21661;50.794;-1.066;2023-04-03T03:24:49;5.40;99.90
35559;DHT22;21661;50.794;-1.066;2023-04-03T03:27:15;5.40;99.90
35559;DHT22;21661;50.794;-1.066;2023-04-03T03:29:42;5.30;99.90
35559;DHT22;21661;50.794;-1.066;2023-04-03T03:32:07;5.30;99.90
35559;DHT22;21661;50.794;-1.066;2023-04-03T03:34:33;5.20;99.90
35559;DHT22;21661;50.794;-1.066;2023-04-03T03:36:59;5.20;99.90
35559;DHT22;21661;50.794;-1.066;2023-04-03T03:39:25;5.40;99.90
35559;DHT22;21661;50.794;-1.066;2023-04-03T03:41:51;5.30;99.90
35559;DHT22;21661;50.794;-1.066;2023-04-03T03:44:19;5.20;99.90
35559;DHT22;21661;50.794;-1.066;2023-04-03T03:46:44;5.20;99.90
35559;DHT22;21661;50.794;-1.066;2023-04-03T03:49:10;5.20;99.90
35559;DHT22;21661;50.794;-1.066;2023-04-03T03:51:37;5.10;99.90
35559;DHT22;21661;50.794;-1.066;2023-04-03T03:54:03;5.20;99.90
35559;DHT22;21661;50.794;-1.066;2023-04-03T03:56:29;5.10;99.90
35559;DHT22;21661;50.794;-1.066;2023-04-03T03:58:54;5.10;99.90
35559;DHT22;21661;50.794;-1.066;2023-04-03T04:01:22;5.00;99.90
35559;DHT22;21661;50.794;-1.066;2023-04-03T04:03:48;5.10;99.90
35559;DHT22;21661;50.794;-1.066;2023-04-03T04:06:14;5.00;99.90
35559;DHT22;21661;50.794;-1.066;2023-04-03T04:08:39;5.00;99.90
35559;DHT22;21661;50.794;-1.066;2023-04-03T04:11:05;5.10;99.90
35559;DHT22;21661;50.794;-1.066;2023-04-03T04:13:31;5.10;99.90
35559;DHT22;21661;50.794;-1.066;2023-04-03T04:15:56;5.10;99.90
35559;DHT22;21661;50.794;-1.066;2023-04-03T04:18:22;5.20;99.90
35559;DHT22;21661;50.794;-1.066;2023-04-03T04:20:49;5.20;99.90
35559;DHT22;21661;50.794;-1.066;2023-04-03T04:23:15;5.10;99.90
35559;DHT22;21661;50.794;-1.066;2023-04-03T04:25:41;5.20;99.90
35559;DHT22;21661;50.794;-1.066;2023-04-03T04:28:09;5.20;99.90
35559;DHT22;21661;50.794;-1.066;2023-04-03T04:30:34;5.30;99.90
35559;DHT22;21661;50.794;-1.066;2023-04-03T04:33:00;5.30;99.90
35559;DHT22;21661;50.794;-1.066;2023-04-03T04:35:26;5.30;99.90
35559;DHT22;21661;50.794;-1.066;2023-04-03T04:37:51;5.40;99.90
35559;DHT22;21661;50.794;-1.066;2023-04-03T04:40:17;5.30;99.90
35559;DHT22;21661;50.794;-1.066;2023-04-03T04:42:43;5.40;99.90
35559;DHT22;21661;50.794;-1.066;2023-04-03T04:45:09;5.40;99.90
35559;DHT22;21661;50.794;-1.066;2023-04-03T04:47:34;5.40;99.90
35559;DHT22;21661;50.794;-1.066;2023-04-03T04:50:00;5.40;99.90
35559;DHT22;21661;50.794;-1.066;2023-04-03T04:52:26;5.40;99.90
35559;DHT22;21661;50.794;-1.066;2023-04-03T04:54:51;5.40;99.90
35559;DHT22;21661;50.794;-1.066;2023-04-03T04:57:17;5.50;99.90
35559;DHT22;21661;50.794;-1.066;2023-04-03T04:59:43;5.40;99.90
35559;DHT22;21661;50.794;-1.066;2023-04-03T05:02:08;5.40;99.90
35559;DHT22;21661;50.794;-1.066;2023-04-03T05:04:34;5.50;99.90
35559;DHT22;21661;50.794;-1.066;2023-04-03T05:07:00;5.30;99.90
35559;DHT22;21661;50.794;-1.066;2023-04-03T05:09:25;5.30;99.90
35559;DHT22;21661;50.794;-1.066;2023-04-03T05:11:51;5.40;99.90
35559;DHT22;21661;50.794;-1.066;2023-04-03T05:14:17;5.40;99.90
35559;DHT22;21661;50.794;-1.066;2023-04-03T05:16:42;5.40;99.90
35559;DHT22;21661;50.794;-1.066;2023-04-03T05:19:08;5.40;99.90
35559;DHT22;21661;50.794;-1.066;2023-04-03T05:21:34;5.40;99.90
35559;DHT22;21661;50.794;-1.066;2023-04-03T05:24:00;5.40;99.90
35559;DHT22;21661;50.794;-1.066;2023-04-03T05:26:31;5.40;99.90
35559;DHT22;21661;50.794;-1.066;2023-04-03T05:28:57;5.40;99.90
35559;DHT22;21661;50.794;-1.066;2023-04-03T05:31:23;5.40;99.90
35559;DHT22;21661;50.794;-1.066;2023-04-03T05:33:49;5.40;99.90
35559;DHT22;21661;50.794;-1.066;2023-04-03T05:36:14;5.30;99.90
35559;DHT22;21661;50.794;-1.066;2023-04-03T05:38:40;5.40;99.90
35559;DHT22;21661;50.794;-1.066;2023-04-03T05:41:06;5.30;99.90
35559;DHT22;21661;50.794;-1.066;2023-04-03T05:43:32;5.30;99.90
35559;DHT22;21661;50.794;-1.066;2023-04-03T05:46:00;5.20;99.90
35559;DHT22;21661;50.794;-1.066;2023-04-03T05:48:25;5.30;99.90
35559;DHT22;21661;50.794;-1.066;2023-04-03T05:50:51;5.40;99.90
35559;DHT22;21661;50.794;-1.066;2023-04-03T05:53:31;5.40;99.90
35559;DHT22;21661;50.794;-1.066;2023-04-03T05:55:58;5.50;99.90
35559;DHT22;21661;50.794;-1.066;2023-04-03T05:58:24;5.40;99.90
35559;DHT22;21661;50.794;-1.066;2023-04-03T06:00:50;5.50;99.90
35559;DHT22;21661;50.794;-1.066;2023-04-03T06:03:16;5.40;99.90
35559;DHT22;21661;50.794;-1.066;2023-04-03T06:05:42;5.50;99.90
35559;DHT22;21661;50.794;-1.066;2023-04-03T06:08:11;5.40;99.90
35559;DHT22;21661;50.794;-1.066;2023-04-03T06:10:36;5.40;99.90
35559;DHT22;21661;50.794;-1.066;2023-04-03T06:13:02;5.50;99.90
35559;DHT22;21661;50.794;-1.066;2023-04-03T06:15:28;5.50;99.90
35559;DHT22;21661;50.794;-1.066;2023-04-03T06:17:53;5.50;99.90
35559;DHT22;21661;50.794;-1.066;2023-04-03T06:20:19;5.50;99.90
35559;DHT22;21661;50.794;-1.066;2023-04-03T06:22:45;5.50;99.90
35559;DHT22;21661;50.794;-1.066;2023-04-03T06:25:11;5.40;99.90
35559;DHT22;21661;50.794;-1.066;2023-04-03T06:27:38;5.40;99.90
35559;DHT22;21661;50.794;-1.066;2023-04-03T06:30:05;5.40;99.90
35559;DHT22;21661;50.794;-1.066;2023-04-03T06:32:30;5.40;99.90
35559;DHT22;21661;50.794;-1.066;2023-04-03T06:34:56;5.40;99.90
35559;DHT22;21661;50.794;-1.066;2023-04-03T06:37:23;5.40;99.90
35559;DHT22;21661;50.794;-1.066;2023-04-03T06:39:51;5.50;99.90
35559;DHT22;21661;50.794;-1.066;2023-04-03T06:42:17;5.50;99.90
35559;DHT22;21661;50.794;-1.066;2023-04-03T06:44:43;5.60;99.90
35559;DHT22;21661;50.794;-1.066;2023-04-03T06:47:13;5.70;99.90
35559;DHT22;21661;50.794;-1.066;2023-04-03T06:49:39;5.60;99.90
35559;DHT22;21661;50.794;-1.066;2023-04-03T06:52:05;5.60;99.90
35559;DHT22;21661;50.794;-1.066;2023-04-03T06:54:31;5.50;99.90
35559;DHT22;21661;50.794;-1.066;2023-04-03T06:56:57;5.50;99.90
35559;DHT22;21661;50.794;-1.066;2023-04-03T06:59:23;5.60;99.90
35559;DHT22;21661;50.794;-1.066;2023-04-03T07:01:50;5.60;99.90
35559;DHT22;21661;50.794;-1.066;2023-04-03T07:04:15;5.60;99.90
35559;DHT22;21661;50.794;-1.066;2023-04-03T07:06:41;5.60;99.90
35559;DHT22;21661;50.794;-1.066;2023-04-03T07:09:09;5.70;99.90
35559;DHT22;21661;50.794;-1.066;2023-04-03T07:11:35;5.60;99.90
35559;DHT22;21661;50.794;-1.066;2023-04-03T07:14:01;5.70;99.90
35559;DHT22;21661;50.794;-1.066;2023-04-03T07:16:27;5.70;99.90
35559;DHT22;21661;50.794;-1.066;2023-04-03T07:18:53;5.70;99.90
35559;DHT22;21661;50.794;-1.066;2023-04-03T07:21:19;5.70;99.90
35559;DHT22;21661;50.794;-1.066;2023-04-03T07:23:44;5.80;99.90
35559;DHT22;21661;50.794;-1.066;2023-04-03T07:26:10;5.80;99.90
35559;DHT22;21661;50.794;-1.066;2023-04-03T07:28:36;5.80;99.90
35559;DHT22;21661;50.794;-1.066;2023-04-03T07:31:04;5.90;99.90
35559;DHT22;21661;50.794;-1.066;2023-04-03T07:33:31;6.00;99.90
35559;DHT22;21661;50.794;-1.066;2023-04-03T07:35:57;6.00;99.90
35559;DHT22;21661;50.794;-1.066;2023-04-03T07:38:24;6.00;99.90
35559;DHT22;21661;50.794;-1.066;2023-04-03T07:40:50;6.10;99.90
35559;DHT22;21661;50.794;-1.066;2023-04-03T07:43:18;6.00;99.90
35559;DHT22;21661;50.794;-1.066;2023-04-03T07:45:44;6.10;99.90
35559;DHT22;21661;50.794;-1.066;2023-04-03T07:48:11;6.10;99.90
35559;DHT22;21661;50.794;-1.066;2023-04-03T07:50:37;6.10;99.90
35559;DHT22;21661;50.794;-1.066;2023-04-03T07:53:03;6.10;99.90
35559;DHT22;21661;50.794;-1.066;2023-04-03T07:55:28;6.20;99.90
35559;DHT22;21661;50.794;-1.066;2023-04-03T07:57:54;6.30;99.90
35559;DHT22;21661;50.794;-1.066;2023-04-03T08:00:21;6.30;99.90
35559;DHT22;21661;50.794;-1.066;2023-04-03T08:02:50;6.40;99.90
35559;DHT22;21661;50.794;-1.066;2023-04-03T08:05:20;6.40;99.90
35559;DHT22;21661;50.794;-1.066;2023-04-03T08:07:47;6.40;99.90
35559;DHT22;21661;50.794;-1.066;2023-04-03T08:10:13;6.60;99.90
35559;DHT22;21661;50.794;-1.066;2023-04-03T08:12:38;6.60;99.90
35559;DHT22;21661;50.794;-1.066;2023-04-03T08:15:05;6.70;99.90
35559;DHT22;21661;50.794;-1.066;2023-04-03T08:17:31;6.80;99.90
35559;DHT22;21661;50.794;-1.066;2023-04-03T08:19:57;6.80;99.90
35559;DHT22;21661;50.794;-1.066;2023-04-03T08:22:23;6.90;99.90
35559;DHT22;21661;50.794;-1.066;2023-04-03T08:24:48;7.00;99.90
35559;DHT22;21661;50.794;-1.066;2023-04-03T08:27:14;7.10;99.90
35559;DHT22;21661;50.794;-1.066;2023-04-03T08:29:39;7.20;99.90
35559;DHT22;21661;50.794;-1.066;2023-04-03T08:32:05;7.30;99.90
35559;DHT22;21661;50.794;-1.066;2023-04-03T08:34:31;7.30;99.90
35559;DHT22;21661;50.794;-1.066;2023-04-03T08:37:03;7.40;99.90
35559;DHT22;21661;50.794;-1.066;2023-04-03T08:39:28;7.50;99.90
35559;DHT22;21661;50.794;-1.066;2023-04-03T08:41:58;7.50;99.90
35559;DHT22;21661;50.794;-1.066;2023-04-03T08:47:18;7.70;99.90
35559;DHT22;21661;50.794;-1.066;2023-04-03T08:49:53;7.80;99.90
35559;DHT22;21661;50.794;-1.066;2023-04-03T08:52:36;7.80;99.90
35559;DHT22;21661;50.794;-1.066;2023-04-03T08:55:29;7.90;99.90
35559;DHT22;21661;50.794;-1.066;2023-04-03T08:58:15;8.00;99.90
35559;DHT22;21661;50.794;-1.066;2023-04-03T09:00:46;8.10;99.90
35559;DHT22;21661;50.794;-1.066;2023-04-03T09:03:18;8.20;99.90
35559;DHT22;21661;50.794;-1.066;2023-04-03T09:06:15;8.30;99.90
35559;DHT22;21661;50.794;-1.066;2023-04-03T09:14:57;8.50;99.90
35559;DHT22;21661;50.794;-1.066;2023-04-03T09:20:19;8.50;99.90
35559;DHT22;21661;50.794;-1.066;2023-04-03T09:22:46;8.60;99.90
35559;DHT22;21661;50.794;-1.066;2023-04-03T09:27:44;8.70;99.90
35559;DHT22;21661;50.794;-1.066;2023-04-03T09:30:15;8.80;99.90
35559;DHT22;21661;50.794;-1.066;2023-04-03T09:32:41;8.80;99.90
35559;DHT22;21661;50.794;-1.066;2023-04-03T09:37:47;8.80;99.90
35559;DHT22;21661;50.794;-1.066;2023-04-03T09:42:52;8.90;99.90
35559;DHT22;21661;50.794;-1.066;2023-04-03T09:45:24;9.10;99.90
35559;DHT22;21661;50.794;-1.066;2023-04-03T09:50:30;9.30;99.90
35559;DHT22;21661;50.794;-1.066;2023-04-03T09:52:56;9.30;99.90
35559;DHT22;21661;50.794;-1.066;2023-04-03T09:55:26;9.20;99.90
35559;DHT22;21661;50.794;-1.066;2023-04-03T09:57:57;9.30;99.90
35559;DHT22;21661;50.794;-1.066;2023-04-03T10:00:24;9.30;99.90
35559;DHT22;21661;50.794;-1.066;2023-04-03T10:02:53;9.40;99.90
35559;DHT22;21661;50.794;-1.066;2023-04-03T10:10:33;9.60;99.90
35559;DHT22;21661;50.794;-1.066;2023-04-03T10:15:39;9.80;99.90
35559;DHT22;21661;50.794;-1.066;2023-04-03T10:18:25;9.70;99.90
35559;DHT22;21661;50.794;-1.066;2023-04-03T10:20:54;9.70;99.90
35559;DHT22;21661;50.794;-1.066;2023-04-03T10:23:27;9.80;99.90
35559;DHT22;21661;50.794;-1.066;2023-04-03T10:28:56;9.90;99.90
35559;DHT22;21661;50.794;-1.066;2023-04-03T10:37:18;10.00;99.90
35559;DHT22;21661;50.794;-1.066;2023-04-03T10:40:05;10.20;99.90
35559;DHT22;21661;50.794;-1.066;2023-04-03T10:43:04;10.30;99.90
35559;DHT22;21661;50.794;-1.066;2023-04-03T10:48:28;10.60;99.90
35559;DHT22;21661;50.794;-1.066;2023-04-03T10:59:23;10.90;99.90
35559;DHT22;21661;50.794;-1.066;2023-04-03T11:01:56;10.80;99.90
35559;DHT22;21661;50.794;-1.066;2023-04-03T11:04:21;10.80;99.90
35559;DHT22;21661;50.794;-1.066;2023-04-03T11:06:53;11.10;99.90
35559;DHT22;21661;50.794;-1.066;2023-04-03T11:09:27;11.20;99.90
35559;DHT22;21661;50.794;-1.066;2023-04-03T11:12:00;11.20;99.90
35559;DHT22;21661;50.794;-1.066;2023-04-03T11:14:32;11.20;99.90
35559;DHT22;21661;50.794;-1.066;2023-04-03T11:22:41;11.50;99.90
35559;DHT22;21661;50.794;-1.066;2023-04-03T11:27:44;11.30;99.90
35559;DHT22;21661;50.794;-1.066;2023-04-03T11:30:19;11.40;99.90
35559;DHT22;21661;50.794;-1.066;2023-04-03T11:33:05;11.40;99.90
35559;DHT22;21661;50.794;-1.066;2023-04-03T11:35:36;11.30;99.90
35559;DHT22;21661;50.794;-1.066;2023-04-03T11:38:04;11.30;99.90
35559;DHT22;21661;50.794;-1.066;2023-04-03T11:40:33;11.40;99.90
35559;DHT22;21661;50.794;-1.066;2023-04-03T11:45:34;11.40;99.90
35559;DHT22;21661;50.794;-1.066;2023-04-03T11:48:03;11.40;99.90
35559;DHT22;21661;50.794;-1.066;2023-04-03T11:55:41;11.50;99.90
35559;DHT22;21661;50.794;-1.066;2023-04-03T11:58:23;11.40;99.90
35559;DHT22;21661;50.794;-1.066;2023-04-03T12:01:06;11.30;99.90
35559;DHT22;21661;50.794;-1.066;2023-04-03T12:16:32;12.30;99.90
35559;DHT22;21661;50.794;-1.066;2023-04-03T12:45:24;11.90;99.90
35559;DHT22;21661;50.794;-1.066;2023-04-03T12:47:54;11.80;99.90
35559;DHT22;21661;50.794;-1.066;2023-04-03T12:50:30;11.90;99.90
35559;DHT22;21661;50.794;-1.066;2023-04-03T12:53:06;12.00;99.90
35559;DHT22;21661;50.794;-1.066;2023-04-03T12:55:36;12.00;99.90
35559;DHT22;21661;50.794;-1.066;2023-04-03T12:58:22;12.00;99.90
35559;DHT22;21661;50.794;-1.066;2023-04-03T13:01:03;11.90;99.90
35559;DHT22;21661;50.794;-1.066;2023-04-03T13:03:29;11.90;99.90
35559;DHT22;21661;50.794;-1.066;2023-04-03T13:05:59;11.90;99.90
35559;DHT22;21661;50.794;-1.066;2023-04-03T13:08:26;12.00;99.90
35559;DHT22;21661;50.794;-1.066;2023-04-03T13:10:53;12.10;99.90
35559;DHT22;21661;50.794;-1.066;2023-04-03T13:13:21;12.10;99.90
35559;DHT22;21661;50.794;-1.066;2023-04-03T13:15:49;12.10;99.90
35559;DHT22;21661;50.794;-1.066;2023-04-03T13:20:52;12.00;99.90
35559;DHT22;21661;50.794;-1.066;2023-04-03T13:23:19;11.90;99.90
35559;DHT22;21661;50.794;-1.066;2023-04-03T13:25:47;11.90;99.90
35559;DHT22;21661;50.794;-1.066;2023-04-03T13:28:17;12.00;99.90
35559;DHT22;21661;50.794;-1.066;2023-04-03T13:33:26;12.00;99.90
35559;DHT22;21661;50.794;-1.066;2023-04-03T13:36:09;11.90;99.90
35559;DHT22;21661;50.794;-1.066;2023-04-03T13:38:41;12.00;99.90
35559;DHT22;21661;50.794;-1.066;2023-04-03T13:41:24;12.00;99.90
35559;DHT22;21661;50.794;-1.066;2023-04-03T13:43:51;11.90;99.90
35559;DHT22;21661;50.794;-1.066;2023-04-03T13:48:45;11.90;99.90
35559;DHT22;21661;50.794;-1.066;2023-04-03T13:53:55;11.90;99.90
35559;DHT22;21661;50.794;-1.066;2023-04-03T13:56:32;11.90;99.90
35559;DHT22;21661;50.794;-1.066;2023-04-03T13:59:22;11.90;99.90
35559;DHT22;21661;50.794;-1.066;2023-04-03T14:04:31;12.00;99.90
35559;DHT22;21661;50.794;-1.066;2023-04-03T14:06:57;11.90;99.90
35559;DHT22;21661;50.794;-1.066;2023-04-03T14:09:25;11.90;99.90
35559;DHT22;21661;50.794;-1.066;2023-04-03T14:11:59;11.80;99.90
35559;DHT22;21661;50.794;-1.066;2023-04-03T14:14:31;11.90;99.90
35559;DHT22;21661;50.794;-1.066;2023-04-03T14:16:58;11.80;99.90
35559;DHT22;21661;50.794;-1.066;2023-04-03T14:19:33;11.70;99.90
35559;DHT22;21661;50.794;-1.066;2023-04-03T14:22:00;11.60;99.90
35559;DHT22;21661;50.794;-1.066;2023-04-03T14:24:28;11.60;99.90
35559;DHT22;21661;50.794;-1.066;2023-04-03T14:26:55;11.60;99.90
35559;DHT22;21661;50.794;-1.066;2023-04-03T14:29:22;11.60;99.90
35559;DHT22;21661;50.794;-1.066;2023-04-03T14:31:49;11.60;99.90
35559;DHT22;21661;50.794;-1.066;2023-04-03T14:34:15;11.60;99.90
35559;DHT22;21661;50.794;-1.066;2023-04-03T14:36:42;11.50;99.90
35559;DHT22;21661;50.794;-1.066;2023-04-03T14:39:15;11.60;99.90
35559;DHT22;21661;50.794;-1.066;2023-04-03T14:41:42;11.50;99.90
35559;DHT22;21661;50.794;-1.066;2023-04-03T14:44:07;11.50;99.90
35559;DHT22;21661;50.794;-1.066;2023-04-03T14:46:36;11.50;99.90
35559;DHT22;21661;50.794;-1.066;2023-04-03T14:49:08;11.50;99.90
35559;DHT22;21661;50.794;-1.066;2023-04-03T14:51:36;11.60;99.90
35559;DHT22;21661;50.794;-1.066;2023-04-03T14:54:03;11.70;99.90
35559;DHT22;21661;50.794;-1.066;2023-04-03T14:56:29;11.60;99.90
35559;DHT22;21661;50.794;-1.066;2023-04-03T14:59:01;11.60;99.90
35559;DHT22;21661;50.794;-1.066;2023-04-03T15:01:27;11.50;99.90
35559;DHT22;21661;50.794;-1.066;2023-04-03T15:03:54;11.50;99.90
35559;DHT22;21661;50.794;-1.066;2023-04-03T15:06:20;11.50;99.90
35559;DHT22;21661;50.794;-1.066;2023-04-03T15:08:47;11.50;99.90
35559;DHT22;21661;50.794;-1.066;2023-04-03T15:11:13;11.40;99.90
35559;DHT22;21661;50.794;-1.066;2023-04-03T15:13:39;11.40;99.90
35559;DHT22;21661;50.794;-1.066;2023-04-03T15:16:16;11.30;99.90
35559;DHT22;21661;50.794;-1.066;2023-04-03T15:18:42;11.20;99.90
35559;DHT22;21661;50.794;-1.066;2023-04-03T15:21:08;11.20;99.90
35559;DHT22;21661;50.794;-1.066;2023-04-03T15:23:33;11.10;99.90
35559;DHT22;21661;50.794;-1.066;2023-04-03T15:25:59;11.20;99.90
35559;DHT22;21661;50.794;-1.066;2023-04-03T15:30:55;11.20;99.90
35559;DHT22;21661;50.794;-1.066;2023-04-03T15:33:22;11.20;99.90
35559;DHT22;21661;50.794;-1.066;2023-04-03T15:35:48;11.20;99.90
35559;DHT22;21661;50.794;-1.066;2023-04-03T15:38:13;11.30;99.90
35559;DHT22;21661;50.794;-1.066;2023-04-03T15:40:40;11.20;99.90
35559;DHT22;21661;50.794;-1.066;2023-04-03T15:43:07;11.20;99.90
35559;DHT22;21661;50.794;-1.066;2023-04-03T15:45:34;11.30;99.90
35559;DHT22;21661;50.794;-1.066;2023-04-03T15:48:01;11.30;99.90
35559;DHT22;21661;50.794;-1.066;2023-04-03T15:50:27;11.20;99.90
35559;DHT22;21661;50.794;-1.066;2023-04-03T15:52:53;11.30;99.90
35559;DHT22;21661;50.794;-1.066;2023-04-03T15:55:25;11.20;99.90
35559;DHT22;21661;50.794;-1.066;2023-04-03T15:57:52;11.20;99.90
35559;DHT22;21661;50.794;-1.066;2023-04-03T16:00:17;11.30;99.90
35559;DHT22;21661;50.794;-1.066;2023-04-03T16:02:45;11.20;99.90
35559;DHT22;21661;50.794;-1.066;2023-04-03T16:05:11;11.30;99.90
35559;DHT22;21661;50.794;-1.066;2023-04-03T16:07:39;11.20;99.90
35559;DHT22;21661;50.794;-1.066;2023-04-03T16:10:09;11.10;99.90
35559;DHT22;21661;50.794;-1.066;2023-04-03T16:12:35;11.10;99.90
35559;DHT22;21661;50.794;-1.066;2023-04-03T16:15:01;11.10;99.90
35559;DHT22;21661;50.794;-1.066;2023-04-03T16:17:27;11.10;99.90
35559;DHT22;21661;50.794;-1.066;2023-04-03T16:19:54;11.00;99.90
35559;DHT22;21661;50.794;-1.066;2023-04-03T16:22:21;11.00;99.90
35559;DHT22;21661;50.794;-1.066;2023-04-03T16:24:48;11.00;99.90
35559;DHT22;21661;50.794;-1.066;2023-04-03T16:27:15;11.10;99.90
35559;DHT22;21661;50.794;-1.066;2023-04-03T16:29:40;11.00;99.90
35559;DHT22;21661;50.794;-1.066;2023-04-03T16:32:06;11.00;99.90
35559;DHT22;21661;50.794;-1.066;2023-04-03T16:34:32;11.00;99.90
35559;DHT22;21661;50.794;-1.066;2023-04-03T16:36:58;11.00;99.90
35559;DHT22;21661;50.794;-1.066;2023-04-03T16:39:23;11.00;99.90
35559;DHT22;21661;50.794;-1.066;2023-04-03T16:41:49;10.90;99.90
35559;DHT22;21661;50.794;-1.066;2023-04-03T16:44:15;10.80;99.90
35559;DHT22;21661;50.794;-1.066;2023-04-03T16:46:40;10.80;99.90
35559;DHT22;21661;50.794;-1.066;2023-04-03T16:49:06;10.70;99.90
35559;DHT22;21661;50.794;-1.066;2023-04-03T16:51:32;10.60;99.90
35559;DHT22;21661;50.794;-1.066;2023-04-03T16:53:57;10.60;99.90
35559;DHT22;21661;50.794;-1.066;2023-04-03T16:56:24;10.60;99.90
35559;DHT22;21661;50.794;-1.066;2023-04-03T16:58:52;10.50;99.90
35559;DHT22;21661;50.794;-1.066;2023-04-03T17:01:20;10.50;99.90
35559;DHT22;21661;50.794;-1.066;2023-04-03T17:03:46;10.50;99.90
35559;DHT22;21661;50.794;-1.066;2023-04-03T17:06:17;10.50;99.90
35559;DHT22;21661;50.794;-1.066;2023-04-03T17:08:44;10.50;99.90
35559;DHT22;21661;50.794;-1.066;2023-04-03T17:11:10;10.50;99.90
35559;DHT22;21661;50.794;-1.066;2023-04-03T17:13:36;10.50;99.90
35559;DHT22;21661;50.794;-1.066;2023-04-03T17:16:04;10.50;99.90
35559;DHT22;21661;50.794;-1.066;2023-04-03T17:18:31;10.40;99.90
35559;DHT22;21661;50.794;-1.066;2023-04-03T17:20:57;10.50;99.90
35559;DHT22;21661;50.794;-1.066;2023-04-03T17:23:25;10.50;99.90
35559;DHT22;21661;50.794;-1.066;2023-04-03T17:25:51;10.50;99.90
35559;DHT22;21661;50.794;-1.066;2023-04-03T17:28:19;10.40;99.90
35559;DHT22;21661;50.794;-1.066;2023-04-03T17:30:47;10.40;99.90
35559;DHT22;21661;50.794;-1.066;2023-04-03T17:33:13;10.40;99.90
35559;DHT22;21661;50.794;-1.066;2023-04-03T17:35:38;10.40;99.90
35559;DHT22;21661;50.794;-1.066;2023-04-03T17:38:04;10.40;99.90
35559;DHT22;21661;50.794;-1.066;2023-04-03T17:40:29;10.40;99.90
35559;DHT22;21661;50.794;-1.066;2023-04-03T17:42:55;10.40;99.90
35559;DHT22;21661;50.794;-1.066;2023-04-03T17:45:21;10.40;99.90